sensor_id;sensor_type;location;lat;lon;timestamp;P1;durP1;ratioP1;P2;durP2;ratioP2
67889;SDS011;54685;52.082;5.426;2023-01-23T00:01:05;24.27;;;12.15;;
67889;SDS011;54685;52.082;5.426;2023-01-23T00:03:37;22.25;;;12.60;;
67889;SDS011;54685;52.082;5.426;2023-01-23T00:06:07;20.65;;;12.25;;
67889;SDS011;54685;52.082;5.426;2023-01-23T00:08:37;24.73;;;12.88;;
67889;SDS011;54685;52.082;5.426;2023-01-23T00:11:04;24.13;;;12.43;;
67889;SDS011;54685;52.082;5.426;2023-01-23T00:13:35;20.08;;;12.40;;
67889;SDS011;54685;52.082;5.426;2023-01-23T00:16:07;22.20;;;12.98;;
67889;SDS011;54685;52.082;5.426;2023-01-23T00:18:35;19.55;;;11.98;;
67889;SDS011;54685;52.082;5.426;2023-01-23T00:21:03;31.08;;;13.65;;
67889;SDS011;54685;52.082;5.426;2023-01-23T00:23:32;27.00;;;12.98;;
67889;SDS011;54685;52.082;5.426;2023-01-23T00:26:03;29.00;;;12.80;;
67889;SDS011;54685;52.082;5.426;2023-01-23T00:28:36;26.10;;;12.55;;
67889;SDS011;54685;52.082;5.426;2023-01-23T00:31:11;21.30;;;13.15;;
67889;SDS011;54685;52.082;5.426;2023-01-23T00:33:41;31.10;;;12.82;;
67889;SDS011;54685;52.082;5.426;2023-01-23T00:36:09;23.95;;;13.27;;
67889;SDS011;54685;52.082;5.426;2023-01-23T00:38:37;25.73;;;12.80;;
67889;SDS011;54685;52.082;5.426;2023-01-23T00:41:04;25.58;;;13.32;;
67889;SDS011;54685;52.082;5.426;2023-01-23T00:43:30;22.80;;;13.20;;
67889;SDS011;54685;52.082;5.426;2023-01-23T00:45:58;27.40;;;12.88;;
67889;SDS011;54685;52.082;5.426;2023-01-23T00:48:25;25.90;;;13.18;;
67889;SDS011;54685;52.082;5.426;2023-01-23T00:50:52;21.67;;;13.20;;
67889;SDS011;54685;52.082;5.426;2023-01-23T00:53:19;20.73;;;12.93;;
67889;SDS011;54685;52.082;5.426;2023-01-23T00:55:50;25.02;;;13.57;;
67889;SDS011;54685;52.082;5.426;2023-01-23T01:07:04;20.77;;;11.15;;
67889;SDS011;54685;52.082;5.426;2023-01-23T01:09:31;20.92;;;13.40;;
67889;SDS011;54685;52.082;5.426;2023-01-23T01:12:16;27.85;;;12.40;;
67889;SDS011;54685;52.082;5.426;2023-01-23T01:14:48;23.00;;;13.25;;
67889;SDS011;54685;52.082;5.426;2023-01-23T01:17:15;23.70;;;13.85;;
67889;SDS011;54685;52.082;5.426;2023-01-23T01:19:42;21.45;;;12.50;;
67889;SDS011;54685;52.082;5.426;2023-01-23T01:22:21;23.00;;;13.10;;
67889;SDS011;54685;52.082;5.426;2023-01-23T01:24:48;22.60;;;12.43;;
67889;SDS011;54685;52.082;5.426;2023-01-23T01:27:21;23.70;;;12.77;;
67889;SDS011;54685;52.082;5.426;2023-01-23T01:29:48;23.17;;;11.52;;
67889;SDS011;54685;52.082;5.426;2023-01-23T01:39:55;24.95;;;12.77;;
67889;SDS011;54685;52.082;5.426;2023-01-23T01:47:19;28.73;;;12.07;;
67889;SDS011;54685;52.082;5.426;2023-01-23T01:50:24;22.13;;;12.85;;
67889;SDS011;54685;52.082;5.426;2023-01-23T01:52:51;31.17;;;13.95;;
67889;SDS011;54685;52.082;5.426;2023-01-23T01:55:18;23.70;;;13.18;;
67889;SDS011;54685;52.082;5.426;2023-01-23T01:57:54;26.58;;;12.57;;
67889;SDS011;54685;52.082;5.426;2023-01-23T02:00:21;33.28;;;14.52;;
67889;SDS011;54685;52.082;5.426;2023-01-23T02:02:50;22.75;;;13.13;;
67889;SDS011;54685;52.082;5.426;2023-01-23T02:05:42;28.25;;;14.00;;
67889;SDS011;54685;52.082;5.426;2023-01-23T02:10:36;27.80;;;14.68;;
67889;SDS011;54685;52.082;5.426;2023-01-23T02:15:50;28.05;;;14.88;;
67889;SDS011;54685;52.082;5.426;2023-01-23T02:18:18;24.92;;;13.95;;
67889;SDS011;54685;52.082;5.426;2023-01-23T02:20:47;22.25;;;13.40;;
67889;SDS011;54685;52.082;5.426;2023-01-23T02:23:37;26.75;;;13.82;;
67889;SDS011;54685;52.082;5.426;2023-01-23T02:26:22;28.25;;;12.30;;
67889;SDS011;54685;52.082;5.426;2023-01-23T02:28:55;25.48;;;13.27;;
67889;SDS011;54685;52.082;5.426;2023-01-23T02:31:26;27.10;;;14.07;;
67889;SDS011;54685;52.082;5.426;2023-01-23T02:33:54;28.77;;;13.57;;
67889;SDS011;54685;52.082;5.426;2023-01-23T02:36:27;27.00;;;13.13;;
67889;SDS011;54685;52.082;5.426;2023-01-23T02:39:04;25.23;;;14.45;;
67889;SDS011;54685;52.082;5.426;2023-01-23T02:41:37;28.20;;;13.85;;
67889;SDS011;54685;52.082;5.426;2023-01-23T02:44:17;25.38;;;14.18;;
67889;SDS011;54685;52.082;5.426;2023-01-23T02:46:58;29.00;;;14.50;;
67889;SDS011;54685;52.082;5.426;2023-01-23T02:49:27;29.15;;;14.02;;
67889;SDS011;54685;52.082;5.426;2023-01-23T02:51:54;28.88;;;16.00;;
67889;SDS011;54685;52.082;5.426;2023-01-23T02:54:22;33.95;;;15.63;;
67889;SDS011;54685;52.082;5.426;2023-01-23T02:56:50;29.15;;;15.35;;
67889;SDS011;54685;52.082;5.426;2023-01-23T02:59:19;35.90;;;16.65;;
67889;SDS011;54685;52.082;5.426;2023-01-23T03:02:06;28.48;;;15.18;;
67889;SDS011;54685;52.082;5.426;2023-01-23T03:04:33;29.48;;;15.98;;
67889;SDS011;54685;52.082;5.426;2023-01-23T03:07:01;30.63;;;15.55;;
67889;SDS011;54685;52.082;5.426;2023-01-23T03:09:27;28.95;;;15.43;;
67889;SDS011;54685;52.082;5.426;2023-01-23T03:11:54;34.42;;;15.43;;
67889;SDS011;54685;52.082;5.426;2023-01-23T03:14:22;30.98;;;15.40;;
67889;SDS011;54685;52.082;5.426;2023-01-23T03:16:51;33.80;;;15.50;;
67889;SDS011;54685;52.082;5.426;2023-01-23T03:19:23;35.53;;;16.02;;
67889;SDS011;54685;52.082;5.426;2023-01-23T03:21:51;29.63;;;15.52;;
67889;SDS011;54685;52.082;5.426;2023-01-23T03:24:20;33.63;;;16.58;;
67889;SDS011;54685;52.082;5.426;2023-01-23T03:26:48;31.65;;;15.07;;
67889;SDS011;54685;52.082;5.426;2023-01-23T03:29:18;32.45;;;15.00;;
67889;SDS011;54685;52.082;5.426;2023-01-23T03:32:06;24.13;;;14.38;;
67889;SDS011;54685;52.082;5.426;2023-01-23T03:34:34;30.95;;;15.68;;
67889;SDS011;54685;52.082;5.426;2023-01-23T03:37:02;33.50;;;15.80;;
67889;SDS011;54685;52.082;5.426;2023-01-23T03:39:31;29.48;;;13.45;;
67889;SDS011;54685;52.082;5.426;2023-01-23T03:42:18;30.98;;;14.77;;
67889;SDS011;54685;52.082;5.426;2023-01-23T03:44:47;34.80;;;16.45;;
67889;SDS011;54685;52.082;5.426;2023-01-23T03:47:15;27.60;;;15.23;;
67889;SDS011;54685;52.082;5.426;2023-01-23T03:49:42;29.10;;;14.80;;
67889;SDS011;54685;52.082;5.426;2023-01-23T03:52:09;36.83;;;14.60;;
67889;SDS011;54685;52.082;5.426;2023-01-23T03:54:36;33.38;;;15.05;;
67889;SDS011;54685;52.082;5.426;2023-01-23T03:57:05;28.23;;;15.13;;
67889;SDS011;54685;52.082;5.426;2023-01-23T04:00:00;26.40;;;13.43;;
67889;SDS011;54685;52.082;5.426;2023-01-23T04:02:38;34.92;;;15.05;;
67889;SDS011;54685;52.082;5.426;2023-01-23T04:05:08;31.58;;;15.13;;
67889;SDS011;54685;52.082;5.426;2023-01-23T04:07:35;29.90;;;15.57;;
67889;SDS011;54685;52.082;5.426;2023-01-23T04:10:02;30.77;;;14.50;;
67889;SDS011;54685;52.082;5.426;2023-01-23T04:12:29;36.20;;;15.25;;
67889;SDS011;54685;52.082;5.426;2023-01-23T04:14:56;36.60;;;15.48;;
67889;SDS011;54685;52.082;5.426;2023-01-23T04:17:23;30.77;;;13.45;;
67889;SDS011;54685;52.082;5.426;2023-01-23T04:19:50;24.45;;;15.45;;
67889;SDS011;54685;52.082;5.426;2023-01-23T04:22:17;25.15;;;14.77;;
67889;SDS011;54685;52.082;5.426;2023-01-23T04:24:46;35.83;;;15.57;;
67889;SDS011;54685;52.082;5.426;2023-01-23T04:27:13;26.85;;;15.65;;
67889;SDS011;54685;52.082;5.426;2023-01-23T04:29:40;30.55;;;15.45;;
67889;SDS011;54685;52.082;5.426;2023-01-23T04:32:07;30.52;;;15.95;;
67889;SDS011;54685;52.082;5.426;2023-01-23T04:34:42;23.48;;;14.30;;
67889;SDS011;54685;52.082;5.426;2023-01-23T04:37:09;29.25;;;15.02;;
67889;SDS011;54685;52.082;5.426;2023-01-23T04:39:35;31.67;;;16.67;;
67889;SDS011;54685;52.082;5.426;2023-01-23T04:42:02;30.98;;;16.17;;
67889;SDS011;54685;52.082;5.426;2023-01-23T04:45:00;33.58;;;15.32;;
67889;SDS011;54685;52.082;5.426;2023-01-23T04:47:46;29.85;;;15.75;;
67889;SDS011;54685;52.082;5.426;2023-01-23T04:50:14;36.25;;;17.05;;
67889;SDS011;54685;52.082;5.426;2023-01-23T04:52:44;28.23;;;16.85;;
67889;SDS011;54685;52.082;5.426;2023-01-23T04:55:11;36.75;;;16.70;;
67889;SDS011;54685;52.082;5.426;2023-01-23T04:57:40;33.70;;;16.52;;
67889;SDS011;54685;52.082;5.426;2023-01-23T05:00:14;30.35;;;15.50;;
67889;SDS011;54685;52.082;5.426;2023-01-23T05:02:44;30.70;;;16.33;;
67889;SDS011;54685;52.082;5.426;2023-01-23T05:05:11;36.38;;;17.17;;
67889;SDS011;54685;52.082;5.426;2023-01-23T05:07:38;27.45;;;15.93;;
67889;SDS011;54685;52.082;5.426;2023-01-23T05:12:38;28.35;;;14.48;;
67889;SDS011;54685;52.082;5.426;2023-01-23T05:15:06;26.60;;;15.18;;
67889;SDS011;54685;52.082;5.426;2023-01-23T05:17:37;29.95;;;16.08;;
67889;SDS011;54685;52.082;5.426;2023-01-23T05:20:05;29.33;;;16.85;;
67889;SDS011;54685;52.082;5.426;2023-01-23T05:22:34;29.67;;;15.40;;
67889;SDS011;54685;52.082;5.426;2023-01-23T05:25:01;34.45;;;17.27;;
67889;SDS011;54685;52.082;5.426;2023-01-23T05:27:29;36.22;;;16.45;;
67889;SDS011;54685;52.082;5.426;2023-01-23T05:29:57;30.52;;;16.42;;
67889;SDS011;54685;52.082;5.426;2023-01-23T05:32:27;29.38;;;16.17;;
67889;SDS011;54685;52.082;5.426;2023-01-23T05:35:07;32.30;;;15.77;;
67889;SDS011;54685;52.082;5.426;2023-01-23T05:37:37;31.48;;;15.85;;
67889;SDS011;54685;52.082;5.426;2023-01-23T05:40:04;30.27;;;15.77;;
67889;SDS011;54685;52.082;5.426;2023-01-23T05:42:54;31.83;;;16.20;;
67889;SDS011;54685;52.082;5.426;2023-01-23T05:45:47;29.67;;;16.27;;
67889;SDS011;54685;52.082;5.426;2023-01-23T05:48:28;43.20;;;22.15;;
67889;SDS011;54685;52.082;5.426;2023-01-23T05:50:55;38.72;;;19.48;;
67889;SDS011;54685;52.082;5.426;2023-01-23T05:53:22;46.95;;;23.52;;
67889;SDS011;54685;52.082;5.426;2023-01-23T05:55:50;35.22;;;17.13;;
67889;SDS011;54685;52.082;5.426;2023-01-23T05:58:18;33.90;;;16.60;;
67889;SDS011;54685;52.082;5.426;2023-01-23T06:01:11;32.67;;;17.35;;
67889;SDS011;54685;52.082;5.426;2023-01-23T06:03:56;26.35;;;15.50;;
67889;SDS011;54685;52.082;5.426;2023-01-23T06:06:46;28.90;;;16.38;;
67889;SDS011;54685;52.082;5.426;2023-01-23T06:09:12;34.58;;;17.42;;
67889;SDS011;54685;52.082;5.426;2023-01-23T06:11:39;23.80;;;15.93;;
67889;SDS011;54685;52.082;5.426;2023-01-23T06:14:07;29.15;;;17.20;;
67889;SDS011;54685;52.082;5.426;2023-01-23T06:16:34;27.50;;;16.33;;
67889;SDS011;54685;52.082;5.426;2023-01-23T06:19:02;31.80;;;16.67;;
67889;SDS011;54685;52.082;5.426;2023-01-23T06:21:31;28.20;;;18.40;;
67889;SDS011;54685;52.082;5.426;2023-01-23T06:23:59;40.35;;;20.17;;
67889;SDS011;54685;52.082;5.426;2023-01-23T06:26:26;33.05;;;18.45;;
67889;SDS011;54685;52.082;5.426;2023-01-23T06:28:54;44.80;;;21.40;;
67889;SDS011;54685;52.082;5.426;2023-01-23T06:31:21;34.67;;;18.13;;
67889;SDS011;54685;52.082;5.426;2023-01-23T06:33:52;28.15;;;16.95;;
67889;SDS011;54685;52.082;5.426;2023-01-23T06:36:24;36.83;;;18.00;;
67889;SDS011;54685;52.082;5.426;2023-01-23T06:38:51;30.52;;;17.05;;
67889;SDS011;54685;52.082;5.426;2023-01-23T06:41:23;32.78;;;17.25;;
67889;SDS011;54685;52.082;5.426;2023-01-23T06:43:52;32.08;;;17.67;;
67889;SDS011;54685;52.082;5.426;2023-01-23T06:46:22;27.40;;;16.75;;
67889;SDS011;54685;52.082;5.426;2023-01-23T06:48:51;36.17;;;18.60;;
67889;SDS011;54685;52.082;5.426;2023-01-23T06:51:19;32.88;;;17.38;;
67889;SDS011;54685;52.082;5.426;2023-01-23T06:53:47;30.17;;;17.10;;
67889;SDS011;54685;52.082;5.426;2023-01-23T06:56:14;36.03;;;17.48;;
67889;SDS011;54685;52.082;5.426;2023-01-23T06:58:45;29.42;;;17.50;;
67889;SDS011;54685;52.082;5.426;2023-01-23T07:01:28;26.95;;;16.60;;
67889;SDS011;54685;52.082;5.426;2023-01-23T07:04:14;23.77;;;15.90;;
67889;SDS011;54685;52.082;5.426;2023-01-23T07:06:42;28.10;;;16.73;;
67889;SDS011;54685;52.082;5.426;2023-01-23T07:09:11;28.88;;;16.25;;
67889;SDS011;54685;52.082;5.426;2023-01-23T07:11:38;27.00;;;16.58;;
67889;SDS011;54685;52.082;5.426;2023-01-23T07:14:05;24.48;;;15.38;;
67889;SDS011;54685;52.082;5.426;2023-01-23T07:16:34;32.17;;;17.05;;
67889;SDS011;54685;52.082;5.426;2023-01-23T07:19:01;27.55;;;16.90;;
67889;SDS011;54685;52.082;5.426;2023-01-23T07:21:32;28.10;;;17.45;;
67889;SDS011;54685;52.082;5.426;2023-01-23T07:23:59;35.33;;;18.23;;
67889;SDS011;54685;52.082;5.426;2023-01-23T07:26:25;28.48;;;17.17;;
67889;SDS011;54685;52.082;5.426;2023-01-23T07:28:53;29.30;;;17.88;;
67889;SDS011;54685;52.082;5.426;2023-01-23T07:31:19;39.47;;;18.90;;
67889;SDS011;54685;52.082;5.426;2023-01-23T07:33:46;34.25;;;18.27;;
67889;SDS011;54685;52.082;5.426;2023-01-23T07:36:13;28.80;;;17.70;;
67889;SDS011;54685;52.082;5.426;2023-01-23T07:38:40;29.13;;;17.60;;
67889;SDS011;54685;52.082;5.426;2023-01-23T07:41:07;28.05;;;18.58;;
67889;SDS011;54685;52.082;5.426;2023-01-23T07:43:34;32.53;;;18.90;;
67889;SDS011;54685;52.082;5.426;2023-01-23T07:46:01;32.60;;;19.98;;
67889;SDS011;54685;52.082;5.426;2023-01-23T07:48:28;32.85;;;18.88;;
67889;SDS011;54685;52.082;5.426;2023-01-23T07:50:55;30.60;;;19.02;;
67889;SDS011;54685;52.082;5.426;2023-01-23T07:53:22;36.53;;;19.83;;
67889;SDS011;54685;52.082;5.426;2023-01-23T07:55:49;34.58;;;19.25;;
67889;SDS011;54685;52.082;5.426;2023-01-23T07:58:15;40.72;;;19.98;;
67889;SDS011;54685;52.082;5.426;2023-01-23T08:00:42;30.83;;;18.67;;
67889;SDS011;54685;52.082;5.426;2023-01-23T08:03:09;36.20;;;19.60;;
67889;SDS011;54685;52.082;5.426;2023-01-23T08:05:36;42.03;;;20.58;;
67889;SDS011;54685;52.082;5.426;2023-01-23T08:08:03;35.22;;;20.60;;
67889;SDS011;54685;52.082;5.426;2023-01-23T08:10:38;34.67;;;19.95;;
67889;SDS011;54685;52.082;5.426;2023-01-23T08:13:06;37.00;;;20.17;;
67889;SDS011;54685;52.082;5.426;2023-01-23T08:15:33;36.22;;;19.73;;
67889;SDS011;54685;52.082;5.426;2023-01-23T08:18:01;35.63;;;19.88;;
67889;SDS011;54685;52.082;5.426;2023-01-23T08:20:28;35.70;;;20.70;;
67889;SDS011;54685;52.082;5.426;2023-01-23T08:22:55;36.22;;;20.00;;
67889;SDS011;54685;52.082;5.426;2023-01-23T08:25:24;35.60;;;20.92;;
67889;SDS011;54685;52.082;5.426;2023-01-23T08:27:51;33.67;;;19.42;;
67889;SDS011;54685;52.082;5.426;2023-01-23T08:30:17;33.97;;;20.00;;
67889;SDS011;54685;52.082;5.426;2023-01-23T08:32:45;34.78;;;20.25;;
67889;SDS011;54685;52.082;5.426;2023-01-23T08:35:12;31.00;;;19.95;;
67889;SDS011;54685;52.082;5.426;2023-01-23T08:37:39;35.20;;;20.17;;
67889;SDS011;54685;52.082;5.426;2023-01-23T08:40:07;38.53;;;20.10;;
67889;SDS011;54685;52.082;5.426;2023-01-23T08:42:35;30.20;;;19.52;;
67889;SDS011;54685;52.082;5.426;2023-01-23T08:45:02;37.97;;;19.42;;
67889;SDS011;54685;52.082;5.426;2023-01-23T08:47:29;36.08;;;19.45;;
67889;SDS011;54685;52.082;5.426;2023-01-23T08:50:02;28.83;;;19.52;;
67889;SDS011;54685;52.082;5.426;2023-01-23T08:52:30;35.33;;;19.85;;
67889;SDS011;54685;52.082;5.426;2023-01-23T08:54:59;30.88;;;19.90;;
67889;SDS011;54685;52.082;5.426;2023-01-23T08:57:25;30.65;;;20.48;;
67889;SDS011;54685;52.082;5.426;2023-01-23T08:59:52;32.25;;;19.77;;
67889;SDS011;54685;52.082;5.426;2023-01-23T09:02:19;34.30;;;18.85;;
67889;SDS011;54685;52.082;5.426;2023-01-23T09:04:47;35.30;;;19.67;;
67889;SDS011;54685;52.082;5.426;2023-01-23T09:07:15;37.75;;;20.67;;
67889;SDS011;54685;52.082;5.426;2023-01-23T09:09:41;28.80;;;19.55;;
67889;SDS011;54685;52.082;5.426;2023-01-23T09:12:08;32.05;;;20.15;;
67889;SDS011;54685;52.082;5.426;2023-01-23T09:14:36;35.65;;;20.08;;
67889;SDS011;54685;52.082;5.426;2023-01-23T09:17:02;32.08;;;20.13;;
67889;SDS011;54685;52.082;5.426;2023-01-23T09:19:31;33.65;;;19.70;;
67889;SDS011;54685;52.082;5.426;2023-01-23T09:21:59;34.60;;;20.23;;
67889;SDS011;54685;52.082;5.426;2023-01-23T09:24:25;30.75;;;20.77;;
67889;SDS011;54685;52.082;5.426;2023-01-23T09:26:52;38.17;;;22.58;;
67889;SDS011;54685;52.082;5.426;2023-01-23T09:29:19;33.70;;;20.13;;
67889;SDS011;54685;52.082;5.426;2023-01-23T09:31:46;39.13;;;20.98;;
67889;SDS011;54685;52.082;5.426;2023-01-23T09:34:13;34.78;;;20.85;;
67889;SDS011;54685;52.082;5.426;2023-01-23T09:36:42;47.05;;;24.48;;
67889;SDS011;54685;52.082;5.426;2023-01-23T09:39:09;33.28;;;22.58;;
67889;SDS011;54685;52.082;5.426;2023-01-23T09:41:37;36.92;;;21.55;;
67889;SDS011;54685;52.082;5.426;2023-01-23T09:44:14;34.28;;;20.35;;
67889;SDS011;54685;52.082;5.426;2023-01-23T09:46:52;30.20;;;20.10;;
67889;SDS011;54685;52.082;5.426;2023-01-23T09:52:11;32.67;;;20.27;;
67889;SDS011;54685;52.082;5.426;2023-01-23T09:54:48;26.98;;;18.27;;
67889;SDS011;54685;52.082;5.426;2023-01-23T10:00:29;29.02;;;19.15;;
67889;SDS011;54685;52.082;5.426;2023-01-23T10:02:59;29.52;;;19.38;;
67889;SDS011;54685;52.082;5.426;2023-01-23T10:05:31;27.63;;;18.63;;
67889;SDS011;54685;52.082;5.426;2023-01-23T10:14:04;27.50;;;18.55;;
67889;SDS011;54685;52.082;5.426;2023-01-23T10:19:49;25.15;;;17.20;;
67889;SDS011;54685;52.082;5.426;2023-01-23T10:25:16;27.00;;;18.90;;
67889;SDS011;54685;52.082;5.426;2023-01-23T10:27:48;27.42;;;19.05;;
67889;SDS011;54685;52.082;5.426;2023-01-23T10:30:25;24.75;;;18.50;;
67889;SDS011;54685;52.082;5.426;2023-01-23T10:32:56;29.90;;;18.98;;
67889;SDS011;54685;52.082;5.426;2023-01-23T10:41:15;24.02;;;16.85;;
67889;SDS011;54685;52.082;5.426;2023-01-23T10:43:49;29.23;;;19.88;;
67889;SDS011;54685;52.082;5.426;2023-01-23T10:46:22;26.38;;;18.20;;
67889;SDS011;54685;52.082;5.426;2023-01-23T10:48:55;24.92;;;17.05;;
67889;SDS011;54685;52.082;5.426;2023-01-23T10:54:00;22.88;;;16.77;;
67889;SDS011;54685;52.082;5.426;2023-01-23T10:56:32;25.48;;;17.08;;
67889;SDS011;54685;52.082;5.426;2023-01-23T10:59:01;20.95;;;15.63;;
67889;SDS011;54685;52.082;5.426;2023-01-23T11:01:31;20.73;;;15.77;;
67889;SDS011;54685;52.082;5.426;2023-01-23T11:04:09;23.02;;;15.25;;
67889;SDS011;54685;52.082;5.426;2023-01-23T11:06:42;23.05;;;15.98;;
67889;SDS011;54685;52.082;5.426;2023-01-23T11:09:17;26.05;;;16.10;;
67889;SDS011;54685;52.082;5.426;2023-01-23T11:11:57;21.40;;;16.10;;
67889;SDS011;54685;52.082;5.426;2023-01-23T11:14:25;21.27;;;16.30;;
67889;SDS011;54685;52.082;5.426;2023-01-23T11:17:03;21.77;;;14.98;;
67889;SDS011;54685;52.082;5.426;2023-01-23T11:19:48;23.05;;;15.57;;
67889;SDS011;54685;52.082;5.426;2023-01-23T11:22:37;20.23;;;14.95;;
67889;SDS011;54685;52.082;5.426;2023-01-23T11:25:26;18.90;;;15.25;;
67889;SDS011;54685;52.082;5.426;2023-01-23T11:28:24;20.25;;;14.50;;
67889;SDS011;54685;52.082;5.426;2023-01-23T11:31:14;19.48;;;14.77;;
67889;SDS011;54685;52.082;5.426;2023-01-23T11:33:48;22.13;;;14.80;;
67889;SDS011;54685;52.082;5.426;2023-01-23T11:41:42;22.42;;;15.50;;
67889;SDS011;54685;52.082;5.426;2023-01-23T11:44:17;21.23;;;15.57;;
67889;SDS011;54685;52.082;5.426;2023-01-23T11:46:55;21.30;;;16.38;;
67889;SDS011;54685;52.082;5.426;2023-01-23T12:00:42;19.05;;;14.25;;
67889;SDS011;54685;52.082;5.426;2023-01-23T12:06:20;21.55;;;15.50;;
67889;SDS011;54685;52.082;5.426;2023-01-23T12:09:13;23.83;;;15.50;;
67889;SDS011;54685;52.082;5.426;2023-01-23T12:26:12;20.73;;;13.23;;
67889;SDS011;54685;52.082;5.426;2023-01-23T12:37:55;18.83;;;13.65;;
67889;SDS011;54685;52.082;5.426;2023-01-23T12:41:05;20.70;;;13.70;;
67889;SDS011;54685;52.082;5.426;2023-01-23T12:46:34;19.88;;;13.63;;
67889;SDS011;54685;52.082;5.426;2023-01-23T12:52:08;18.95;;;13.18;;
67889;SDS011;54685;52.082;5.426;2023-01-23T12:54:45;15.75;;;12.95;;
67889;SDS011;54685;52.082;5.426;2023-01-23T12:57:41;21.02;;;13.73;;
67889;SDS011;54685;52.082;5.426;2023-01-23T13:03:06;16.08;;;12.65;;
67889;SDS011;54685;52.082;5.426;2023-01-23T13:06:20;16.73;;;12.07;;
67889;SDS011;54685;52.082;5.426;2023-01-23T13:14:48;14.25;;;11.43;;
67889;SDS011;54685;52.082;5.426;2023-01-23T13:17:57;15.63;;;11.52;;
67889;SDS011;54685;52.082;5.426;2023-01-23T13:20:30;15.80;;;11.63;;
67889;SDS011;54685;52.082;5.426;2023-01-23T13:25:45;16.73;;;12.20;;
67889;SDS011;54685;52.082;5.426;2023-01-23T13:28:27;15.25;;;11.85;;
67889;SDS011;54685;52.082;5.426;2023-01-23T13:33:52;16.33;;;12.47;;
67889;SDS011;54685;52.082;5.426;2023-01-23T13:41:39;15.38;;;11.77;;
67889;SDS011;54685;52.082;5.426;2023-01-23T13:49:47;15.75;;;11.40;;
67889;SDS011;54685;52.082;5.426;2023-01-23T13:52:38;16.02;;;11.15;;
67889;SDS011;54685;52.082;5.426;2023-01-23T13:55:43;18.92;;;12.10;;
67889;SDS011;54685;52.082;5.426;2023-01-23T13:58:43;15.23;;;11.40;;
67889;SDS011;54685;52.082;5.426;2023-01-23T14:01:28;16.42;;;11.90;;
67889;SDS011;54685;52.082;5.426;2023-01-23T14:04:29;16.77;;;11.30;;
67889;SDS011;54685;52.082;5.426;2023-01-23T14:07:30;18.08;;;12.18;;
67889;SDS011;54685;52.082;5.426;2023-01-23T14:10:34;19.50;;;12.43;;
67889;SDS011;54685;52.082;5.426;2023-01-23T14:13:16;15.85;;;11.82;;
67889;SDS011;54685;52.082;5.426;2023-01-23T14:16:00;13.55;;;10.85;;
67889;SDS011;54685;52.082;5.426;2023-01-23T14:18:50;16.48;;;11.15;;
67889;SDS011;54685;52.082;5.426;2023-01-23T14:21:34;13.05;;;9.43;;
67889;SDS011;54685;52.082;5.426;2023-01-23T14:24:22;14.73;;;10.90;;
67889;SDS011;54685;52.082;5.426;2023-01-23T14:26:51;18.77;;;13.40;;
67889;SDS011;54685;52.082;5.426;2023-01-23T14:29:29;14.82;;;11.38;;
67889;SDS011;54685;52.082;5.426;2023-01-23T14:31:56;15.75;;;12.50;;
67889;SDS011;54685;52.082;5.426;2023-01-23T14:34:24;15.32;;;12.80;;
67889;SDS011;54685;52.082;5.426;2023-01-23T14:37:04;17.27;;;12.20;;
67889;SDS011;54685;52.082;5.426;2023-01-23T14:39:35;17.52;;;12.43;;
67889;SDS011;54685;52.082;5.426;2023-01-23T14:42:15;17.83;;;12.02;;
67889;SDS011;54685;52.082;5.426;2023-01-23T14:44:51;17.67;;;12.27;;
67889;SDS011;54685;52.082;5.426;2023-01-23T14:47:24;16.02;;;11.65;;
67889;SDS011;54685;52.082;5.426;2023-01-23T14:49:54;16.20;;;11.48;;
67889;SDS011;54685;52.082;5.426;2023-01-23T14:52:23;17.23;;;12.85;;
67889;SDS011;54685;52.082;5.426;2023-01-23T14:54:51;16.33;;;12.50;;
67889;SDS011;54685;52.082;5.426;2023-01-23T14:57:20;16.50;;;12.63;;
67889;SDS011;54685;52.082;5.426;2023-01-23T14:59:55;17.92;;;13.48;;
67889;SDS011;54685;52.082;5.426;2023-01-23T15:02:24;17.50;;;12.65;;
67889;SDS011;54685;52.082;5.426;2023-01-23T15:05:06;21.55;;;12.70;;
67889;SDS011;54685;52.082;5.426;2023-01-23T15:07:56;15.15;;;12.32;;
67889;SDS011;54685;52.082;5.426;2023-01-23T15:10:29;14.27;;;10.88;;
67889;SDS011;54685;52.082;5.426;2023-01-23T15:13:21;13.10;;;10.50;;
67889;SDS011;54685;52.082;5.426;2023-01-23T15:15:54;13.52;;;11.13;;
67889;SDS011;54685;52.082;5.426;2023-01-23T15:18:24;16.80;;;11.52;;
67889;SDS011;54685;52.082;5.426;2023-01-23T15:20:54;13.45;;;11.27;;
67889;SDS011;54685;52.082;5.426;2023-01-23T15:23:37;18.38;;;11.90;;
67889;SDS011;54685;52.082;5.426;2023-01-23T15:44:38;16.92;;;11.20;;
67889;SDS011;54685;52.082;5.426;2023-01-23T15:47:05;18.05;;;12.32;;
67889;SDS011;54685;52.082;5.426;2023-01-23T15:49:33;15.75;;;12.90;;
67889;SDS011;54685;52.082;5.426;2023-01-23T15:52:23;14.38;;;11.90;;
67889;SDS011;54685;52.082;5.426;2023-01-23T15:54:57;17.17;;;11.55;;
67889;SDS011;54685;52.082;5.426;2023-01-23T15:57:26;16.02;;;12.10;;
67889;SDS011;54685;52.082;5.426;2023-01-23T15:59:54;16.90;;;12.38;;
67889;SDS011;54685;52.082;5.426;2023-01-23T16:02:22;16.27;;;12.35;;
67889;SDS011;54685;52.082;5.426;2023-01-23T16:04:57;15.95;;;12.32;;
67889;SDS011;54685;52.082;5.426;2023-01-23T16:07:30;20.85;;;12.73;;
67889;SDS011;54685;52.082;5.426;2023-01-23T16:09:59;18.02;;;13.30;;
67889;SDS011;54685;52.082;5.426;2023-01-23T16:12:29;19.45;;;13.13;;
67889;SDS011;54685;52.082;5.426;2023-01-23T16:14:56;20.02;;;13.82;;
67889;SDS011;54685;52.082;5.426;2023-01-23T16:17:23;27.45;;;19.00;;
67889;SDS011;54685;52.082;5.426;2023-01-23T16:19:50;24.35;;;17.80;;
67889;SDS011;54685;52.082;5.426;2023-01-23T16:22:19;22.95;;;16.27;;
67889;SDS011;54685;52.082;5.426;2023-01-23T16:24:51;21.48;;;16.23;;
67889;SDS011;54685;52.082;5.426;2023-01-23T16:27:19;25.17;;;15.57;;
67889;SDS011;54685;52.082;5.426;2023-01-23T16:29:52;19.17;;;14.93;;
67889;SDS011;54685;52.082;5.426;2023-01-23T16:32:19;20.38;;;15.02;;
67889;SDS011;54685;52.082;5.426;2023-01-23T16:34:46;21.10;;;15.77;;
67889;SDS011;54685;52.082;5.426;2023-01-23T16:37:14;24.33;;;19.17;;
67889;SDS011;54685;52.082;5.426;2023-01-23T16:39:43;24.55;;;15.57;;
67889;SDS011;54685;52.082;5.426;2023-01-23T16:42:13;22.15;;;15.65;;
67889;SDS011;54685;52.082;5.426;2023-01-23T16:44:42;20.85;;;14.57;;
67889;SDS011;54685;52.082;5.426;2023-01-23T16:47:09;18.83;;;13.68;;
67889;SDS011;54685;52.082;5.426;2023-01-23T16:49:35;23.60;;;15.02;;
67889;SDS011;54685;52.082;5.426;2023-01-23T16:52:19;20.53;;;13.90;;
67889;SDS011;54685;52.082;5.426;2023-01-23T16:54:50;18.45;;;14.20;;
67889;SDS011;54685;52.082;5.426;2023-01-23T16:57:18;19.10;;;14.63;;
67889;SDS011;54685;52.082;5.426;2023-01-23T16:59:46;17.83;;;13.75;;
67889;SDS011;54685;52.082;5.426;2023-01-23T17:02:19;18.85;;;14.43;;
67889;SDS011;54685;52.082;5.426;2023-01-23T17:04:48;22.90;;;16.13;;
67889;SDS011;54685;52.082;5.426;2023-01-23T17:07:16;19.92;;;14.75;;
67889;SDS011;54685;52.082;5.426;2023-01-23T17:09:44;18.67;;;14.18;;
67889;SDS011;54685;52.082;5.426;2023-01-23T17:12:16;21.02;;;14.85;;
67889;SDS011;54685;52.082;5.426;2023-01-23T17:14:50;22.67;;;14.70;;
67889;SDS011;54685;52.082;5.426;2023-01-23T17:17:21;19.15;;;15.63;;
67889;SDS011;54685;52.082;5.426;2023-01-23T17:19:57;22.10;;;16.30;;